Terminal Aerodrome Forecast
Issued by NWS

Home | Current Version | Previous Version | Text Only | Print | Product List | Glossary On
Versions: 1 2 3 4 5 6 7 8 9 10 11 12 13 14
000
FTUS46 KEKA 021739
TAFUKI
TAF
KUKI 021739Z 0218/0318 14005KT P6SM SCT250
     FM022000 15011G19KT P6SM FEW250
     FM030100 19006KT P6SM BKN250
     FM030800 16003KT P6SM SCT005=

USA.gov is the U.S. government's official web portal to all federal, state and local government web resources and services.